Latest Weather Observations for Warwick

IDQ60801

Issued at 8:02 pm EST Sunday 14 February 2016 (issued every 30 minutes, with the page automatically refreshed every 10 minutes)

About weather observations | Map of weather stations | Latest weather observations for QLD | Other Formats
Station Details ID: 041525 Name: WARWICK Lat: -28.21 Lon: 152.10 Height: 475.4 m
Data from the previous 72 hours. | See also: Recent months at Warwick
Date/Time
EST
Temp
°C
App
Temp
°C
Dew
Point
Rel
Hum
%
Delta-T
°C
Wind Press
QNH
hPa
Press
MSL
hPa
Rain
since 9 am
mm
Dir
 
Spd
km/h
Gust
km/h
Spd
kts
Gust
kts
14/08:00pm 21.2 22.1 13.0 59 4.8 CALM 0 0 0 0 1010.6 1007.9 0.0
14/07:30pm 21.5 22.5 13.1 58 4.9 CALM 0 0 0 0 1010.4 1007.8 0.0
14/07:00pm 24.1 25.1 13.1 50 6.5 CALM 0 0 0 0 1010.1 1007.5 0.0
14/06:30pm 26.1 26.5 14.7 49 7.0 E 6 9 3 5 1009.8 1007.2 0.0
14/06:00pm 27.9 27.2 12.0 37 9.4 ESE 7 15 4 8 1009.6 1007.0 0.0
14/05:30pm 29.6 27.7 10.5 30 11.1 SE 11 17 6 9 1009.4 1006.8 0.0
14/05:00pm 30.4 28.0 10.0 28 11.8 SE 13 22 7 12 1008.9 1006.2 0.0
14/04:30pm 31.1 28.0 7.1 22 13.3 SE 13 20 7 11 1008.8 1006.1 0.0
14/04:00pm 31.4 26.8 3.9 17 14.5 SE 17 24 9 13 1008.6 1005.9 0.0
14/03:30pm 31.9 27.7 3.6 16 14.9 SE 15 24 8 13 1008.5 1005.8 0.0
14/03:00pm 32.0 28.7 6.4 20 14.1 SSE 13 24 7 13 1008.7 1006.0 0.0
14/02:30pm 31.0 28.1 8.1 24 12.9 SSE 13 20 7 11 1008.8 1006.1 0.0
14/02:00pm 31.0 27.5 7.0 22 13.3 SE 15 26 8 14 1008.9 1006.2 0.0
14/01:30pm 30.9 28.2 9.0 25 12.5 SE 13 26 7 14 1009.1 1006.4 0.0
14/01:00pm 30.0 26.6 10.7 30 11.3 SSE 19 30 10 16 1009.3 1006.7 0.0
14/12:30pm 30.0 26.0 8.9 26 12.0 SSE 20 33 11 18 1009.5 1006.9 0.0
14/12:00pm 29.1 26.5 12.1 35 10.1 SSE 17 32 9 17 1009.7 1007.1 0.0
14/11:30am 28.7 25.9 12.7 37 9.6 SSE 19 28 10 15 1010.0 1007.4 0.0
14/11:00am 27.5 24.3 11.9 38 9.2 SSE 20 30 11 16 1010.3 1007.7 0.0
14/10:30am 26.8 23.6 11.1 37 9.1 SSE 19 32 10 17 1010.8 1008.1 0.0
14/10:00am 25.1 24.2 14.8 52 6.3 S 13 20 7 11 1011.0 1008.3 0.0
14/09:30am 24.2 22.7 15.2 57 5.5 SSE 17 24 9 13 1011.2 1008.6 0.0
14/09:00am 23.0 21.4 14.9 60 4.9 SE 17 26 9 14 1011.3 1008.7 0.0
14/08:30am 21.9 20.9 15.5 67 3.9 SSE 15 26 8 14 1011.4 1008.8 0.0
14/08:00am 20.3 18.3 15.0 71 3.2 SSE 19 32 10 17 1011.5 1008.9 0.0
14/07:30am 19.5 17.3 15.0 75 2.7 SSE 20 30 11 16 1011.4 1008.8 0.0
14/07:00am 18.6 17.5 15.3 81 2.0 SSE 15 28 8 15 1011.4 1008.8 0.0
14/06:30am 17.4 17.7 15.0 86 1.4 SSE 7 13 4 7 1011.4 1008.8 0.0
14/06:00am 15.9 16.2 14.4 91 0.9 SE 6 9 3 5 1011.3 1008.7 0.0
14/05:30am 16.2 15.9 14.3 88 1.1 SE 9 13 5 7 1011.0 1008.3 0.0
14/05:00am 15.4 16.0 14.2 92 0.7 SE 4 9 2 5 1010.7 1008.0 0.0
14/04:30am 16.0 16.3 14.5 91 0.9 SE 6 11 3 6 1010.4 1007.8 0.0
14/04:00am 15.2 15.8 14.2 94 0.6 E 4 7 2 4 1010.3 1007.7 0.0
14/03:30am 16.8 16.6 14.8 88 1.2 SE 9 13 5 7 1010.4 1007.8 0.0
14/03:00am 15.2 15.4 14.3 94 0.5 E 6 7 3 4 1010.6 1007.9 0.0
14/02:30am 17.0 17.1 15.5 91 0.9 SE 9 15 5 8 1010.7 1008.0 0.0
14/02:00am 16.7 18.0 15.2 91 0.9 ESE 2 6 1 3 1011.0 1008.3 0.0
14/01:30am 17.4 17.8 15.4 88 1.2 SSE 7 13 4 7 1011.1 1008.4 0.0
14/01:00am 17.5 17.1 15.3 87 1.3 SSE 11 17 6 9 1011.4 1008.8 0.0
14/12:30am 17.8 17.4 15.1 84 1.6 SE 11 17 6 9 1011.8 1009.2 0.0
14/12:00am 18.1 17.4 15.3 84 1.7 SE 13 19 7 10 1012.2 1009.6 0.0
 
Date/Time
EST
Temp
°C
App
Temp
°C
Dew
Point
Rel
Hum
%
Delta-T
°C
Wind Press
QNH
hPa
Press
MSL
hPa
Rain
since 9 am
mm
Dir
 
Spd
km/h
Gust
km/h
Spd
kts
Gust
kts
13/11:30pm 18.1 17.7 15.1 82 1.8 SE 11 17 6 9 1012.5 1009.9 0.0
13/11:00pm 18.2 18.7 15.5 84 1.6 SSE 7 11 4 6 1012.8 1010.1 0.0
13/10:30pm 18.5 19.1 15.7 84 1.7 SSE 7 11 4 6 1012.8 1010.1 0.0
13/10:00pm 18.1 19.0 16.0 87 1.3 SSE 6 11 3 6 1012.9 1010.2 0.0
13/09:30pm 18.7 19.6 16.2 85 1.5 ENE 6 9 3 5 1013.0 1010.3 0.0
13/09:00pm 18.9 20.0 16.5 86 1.5 ESE 6 11 3 6 1013.0 1010.3 0.0
13/08:30pm 19.7 21.0 17.0 84 1.7 SE 6 9 3 5 1012.8 1010.1 0.0
13/08:00pm 20.5 21.8 17.0 80 2.2 SE 6 9 3 5 1012.5 1009.9 0.0
13/07:30pm 21.1 22.0 16.6 75 2.8 ESE 7 13 4 7 1012.4 1009.8 0.0
13/07:00pm 22.1 23.1 16.8 72 3.3 ESE 7 13 4 7 1012.0 1009.4 0.0
13/06:30pm 23.5 24.0 16.6 65 4.3 ESE 9 22 5 12 1011.8 1009.2 0.0
13/06:00pm 25.0 23.8 16.0 57 5.6 SE 17 28 9 15 1011.5 1008.9 0.0
13/05:30pm 26.0 25.7 16.5 55 6.0 ESE 13 22 7 12 1011.1 1008.4 0.0
13/05:00pm 26.7 25.6 16.4 53 6.5 SE 17 26 9 14 1010.9 1008.2 0.0
13/04:30pm 27.4 26.5 15.9 49 7.2 SE 15 26 8 14 1010.8 1008.1 0.0
13/04:00pm 28.1 26.4 14.8 44 8.2 SSE 17 24 9 13 1010.7 1008.0 0.0
13/03:30pm 27.8 26.5 15.8 48 7.5 SE 17 26 9 14 1010.8 1008.1 0.0
13/03:00pm 28.0 26.2 15.5 46 7.8 SE 19 30 10 16 1011.0 1008.3 0.0
13/02:30pm 28.1 26.8 15.8 47 7.7 SE 17 26 9 14 1011.2 1008.6 0.0
13/02:00pm 26.9 25.3 15.9 51 6.9 SE 19 39 10 21 1011.7 1009.1 0.0
13/01:30pm 27.7 25.5 15.9 48 7.4 SE 22 35 12 19 1012.0 1009.4 0.0
13/01:00pm 27.3 25.0 15.8 49 7.2 SE 22 35 12 19 1012.2 1009.6 0.0
13/12:30pm 26.9 24.8 16.1 51 6.8 SE 22 35 12 19 1012.5 1009.9 0.0
13/12:00pm 26.7 25.0 16.2 52 6.6 SE 20 32 11 17 1012.8 1010.1 0.0
13/11:30am 26.3 24.1 14.9 49 7.0 SE 20 33 11 18 1013.0 1010.3 0.0
13/11:00am 25.7 23.4 14.7 50 6.7 SE 20 33 11 18 1013.2 1010.6 0.0
13/10:30am 25.3 22.3 14.8 52 6.4 SSE 24 37 13 20 1013.4 1010.8 0.0
13/10:00am 24.7 22.3 14.3 52 6.3 SE 20 35 11 19 1013.7 1011.1 0.0
13/09:30am 23.9 21.4 14.1 54 5.9 SE 20 35 11 19 1013.9 1011.3 0.0
13/09:00am 23.0 19.7 14.0 57 5.4 SE 24 35 13 19 1014.0 1011.4 0.0
13/08:30am 22.0 18.9 14.5 62 4.5 SE 24 37 13 20 1014.1 1011.5 0.0
13/08:00am 21.6 20.2 15.5 68 3.7 SSE 17 28 9 15 1014.2 1011.6 0.0
13/07:30am 20.7 19.3 15.6 72 3.1 SE 17 26 9 14 1014.2 1011.6 0.0
13/07:00am 19.8 18.9 15.9 78 2.4 SE 15 28 8 15 1014.2 1011.6 0.0
13/06:30am 18.2 17.6 15.7 85 1.5 SE 13 22 7 12 1013.7 1011.1 0.0
13/06:00am 17.8 17.2 15.6 87 1.3 SE 13 22 7 12 1013.6 1011.0 0.0
13/05:30am 17.4 17.2 15.7 90 1.0 SSE 11 20 6 11 1013.3 1010.7 0.0
13/05:00am 17.2 17.0 15.7 91 0.9 SE 11 19 6 10 1013.0 1010.3 0.0
13/04:30am 17.3 17.1 15.6 90 1.0 SSE 11 20 6 11 1012.9 1010.2 0.0
13/04:00am 17.4 16.8 15.6 89 1.1 SSE 13 24 7 13 1012.8 1010.1 0.0
13/03:30am 17.4 17.2 15.6 89 1.1 SSE 11 17 6 9 1012.8 1010.1 0.0
13/03:00am 17.1 17.1 15.3 89 1.1 SE 9 17 5 9 1013.0 1010.3 0.0
13/02:30am 17.1 16.7 15.3 89 1.1 SSE 11 19 6 10 1013.1 1010.5 0.0
13/02:00am 17.3 16.9 15.3 88 1.2 SE 11 17 6 9 1013.2 1010.6 0.0
13/01:30am 16.5 17.7 14.8 90 1.0 ESE 2 7 1 4 1013.6 1011.0 0.0
13/01:00am 17.1 16.5 14.5 85 1.5 SSE 11 19 6 10 1013.6 1011.0 0.0
13/12:30am 16.3 15.9 14.2 87 1.2 SE 9 13 5 7 1014.3 1011.7 0.0
13/12:00am 15.5 15.5 14.1 91 0.8 SE 7 11 4 6 1014.4 1011.8 0.0
 
Date/Time
EST
Temp
°C
App
Temp
°C
Dew
Point
Rel
Hum
%
Delta-T
°C
Wind Press
QNH
hPa
Press
MSL
hPa
Rain
since 9 am
mm
Dir
 
Spd
km/h
Gust
km/h
Spd
kts
Gust
kts
12/11:30pm 15.1 15.1 13.7 91 0.8 SE 6 9 3 5 1014.8 1012.2 0.0
12/11:00pm 15.6 15.7 13.9 90 1.0 SE 6 9 3 5 1015.2 1012.6 0.0
12/10:30pm 16.1 16.9 13.7 86 1.4 SE 2 7 1 4 1015.3 1012.7 0.0
12/10:00pm 17.2 17.0 13.7 80 2.0 SSE 7 11 4 6 1015.3 1012.7 0.0
12/09:30pm 16.9 17.4 14.0 83 1.7 SE 4 9 2 5 1015.5 1012.9 0.0
12/09:00pm 18.1 18.0 13.8 76 2.5 SE 7 13 4 7 1015.7 1013.1 0.0
12/08:30pm 18.8 18.6 13.5 71 3.1 E 7 15 4 8 1015.6 1013.0 0.0
12/08:00pm 19.2 19.4 14.7 75 2.7 SE 7 13 4 7 1015.3 1012.7 0.0
12/07:30pm 20.5 20.1 14.1 66 3.8 ESE 9 15 5 8 1015.4 1012.8 0.0
12/07:00pm 21.4 21.2 14.6 65 4.1 ESE 9 17 5 9 1015.2 1012.6 0.0
12/06:30pm 22.6 22.0 14.6 60 4.8 ESE 11 20 6 11 1014.4 1011.8 0.0
12/06:00pm 24.0 23.2 15.2 58 5.4 ESE 13 26 7 14 1014.1 1011.5 0.0
12/05:30pm 25.3 23.1 15.0 53 6.3 SE 20 30 11 16 1013.7 1011.1 0.0
12/05:00pm 26.6 25.3 15.9 51 6.7 SE 17 28 9 15 1013.4 1010.8 0.0
12/04:30pm 26.6 24.9 15.7 51 6.8 SE 19 32 10 17 1013.2 1010.6 0.0
12/04:00pm 27.1 25.2 15.3 48 7.3 SE 19 28 10 15 1013.2 1010.6 0.0
12/03:30pm 27.5 25.7 14.4 44 8.0 SE 17 28 9 15 1013.1 1010.5 0.0
12/03:00pm 26.9 25.5 15.5 49 7.1 SE 17 32 9 17 1013.3 1010.7 0.0
12/02:30pm 27.5 25.9 15.0 46 7.7 SE 17 24 9 13 1013.4 1010.8 0.0
12/02:00pm 27.6 25.5 14.8 45 7.9 SE 19 30 10 16 1013.6 1011.0 0.0
12/01:30pm 27.4 25.4 14.9 46 7.7 SE 19 35 10 19 1013.7 1011.1 0.0
12/01:00pm 26.4 24.7 14.8 49 7.1 SE 17 28 9 15 1013.9 1011.3 0.0
12/12:30pm 27.2 25.0 14.5 45 7.8 SE 19 30 10 16 1014.1 1011.5 0.0
12/12:00pm 26.5 24.4 15.2 49 7.0 SE 20 35 11 19 1014.4 1011.8 0.0
12/11:30am 25.0 23.2 15.4 55 5.9 SE 19 32 10 17 1014.6 1012.0 0.0
12/11:00am 26.2 24.5 15.7 52 6.5 SE 19 28 10 15 1014.9 1012.4 0.0
12/10:30am 24.9 23.2 15.7 56 5.7 SE 19 33 10 18 1015.3 1012.7 0.0
12/10:00am 23.9 22.1 15.4 59 5.2 SE 19 28 10 15 1015.6 1013.0 0.0
12/09:30am 24.0 22.0 15.5 59 5.2 SSE 20 32 11 17 1015.6 1013.0 0.0
12/09:00am 23.0 20.9 15.3 62 4.7 SE 20 32 11 17 1015.7 1013.1 0.0
12/08:30am 22.6 20.5 15.2 63 4.5 SE 20 30 11 16 1015.8 1013.2 0.0
12/08:00am 21.2 20.2 15.6 70 3.4 SE 15 24 8 13 1015.9 1013.3 0.0
12/07:30am 19.9 19.5 16.1 79 2.3 SE 13 24 7 13 1015.7 1013.1 0.0
12/07:00am 18.8 18.6 15.8 83 1.8 SE 11 20 6 11 1015.5 1012.9 0.0
12/06:30am 17.2 17.6 15.2 88 1.2 E 7 13 4 7 1015.4 1012.8 0.0
12/06:00am 16.2 16.5 15.0 93 0.7 ENE 7 13 4 7 1015.1 1012.5 0.0
12/05:30am 14.9 15.1 14.2 96 0.4 ESE 6 9 3 5 1014.7 1012.1 0.0
12/05:00am 15.7 15.8 14.5 93 0.7 ENE 7 11 4 6 1014.9 1012.4 0.0
12/04:30am 15.1 15.2 13.9 92 0.7 E 6 9 3 5 1014.6 1012.0 0.0
12/04:00am 14.8 16.0 13.8 94 0.6 CALM 0 7 0 4 1014.4 1011.8 0.0
12/03:30am 15.4 15.7 14.4 94 0.6 NE 6 9 3 5 1014.5 1011.9 0.0
12/03:00am 15.9 16.2 15.1 95 0.5 E 7 11 4 6 1014.5 1011.9 0.0
12/02:30am 15.9 16.4 15.1 95 0.5 SE 6 9 3 5 1014.7 1012.1 0.0
12/02:00am 16.3 17.5 14.8 91 0.9 ENE 2 7 1 4 1014.7 1012.1 0.0
12/01:30am 16.5 17.0 15.0 91 0.9 SE 6 9 3 5 1014.7 1012.1 0.0
12/01:00am 16.2 16.6 14.8 91 0.8 ESE 6 9 3 5 1014.9 1012.4 0.0
12/12:30am 15.7 16.1 14.7 94 0.6 ENE 6 9 3 5 1015.1 1012.5 0.0
12/12:00am 17.2 17.2 15.2 88 1.2 SE 9 15 5 8 1015.4 1012.8 0.0
 
Date/Time
EST
Temp
°C
App
Temp
°C
Dew
Point
Rel
Hum
%
Delta-T
°C
Wind Press
QNH
hPa
Press
MSL
hPa
Rain
since 9 am
mm
Dir
 
Spd
km/h
Gust
km/h
Spd
kts
Gust
kts
11/11:30pm 17.5 17.5 15.3 87 1.3 SE 9 13 5 7 1015.3 1012.7 0.0
11/11:00pm 17.2 17.8 15.7 91 0.9 ESE 7 11 4 6 1015.5 1012.9 0.0
11/10:30pm 17.8 18.9 15.6 87 1.3 SE 4 9 2 5 1015.7 1013.1 0.0
11/10:00pm 18.2 19.5 16.1 87 1.3 SE 4 7 2 4 1015.8 1013.2 0.0
11/09:30pm 19.4 19.7 15.9 80 2.1 SE 9 17 5 9 1015.6 1013.0 0.0
11/09:00pm 20.1 19.9 15.8 76 2.6 SSE 11 17 6 9 1015.4 1012.8 0.0
11/08:30pm 20.6 21.0 16.2 76 2.7 SE 9 15 5 8 1015.2 1012.6 0.0

Other Formats:

Comma delimited format used in spreadsheet applications
http://www.bom.gov.au/fwo/IDQ60801/IDQ60801.94555.axf

JavaScript Object Notation format (JSON) in row-major order
http://www.bom.gov.au/fwo/IDQ60801/IDQ60801.94555.json